METAR Data
IDs: Format: Raw Decoded Include TAF

Data at: 1841 UTC 16 Oct 2021

EFLP 161820Z 24010KT 200V260 CAVOK 05/M01 Q0995